sensor_id;sensor_type;location;lat;lon;timestamp;P1;durP1;ratioP1;P2;durP2;ratioP2
72437;SDS011;60444;43.534;-5.674;2022-12-18T00:02:12;19.40;;;10.05;;
72437;SDS011;60444;43.534;-5.674;2022-12-18T00:04:37;32.03;;;18.97;;
72437;SDS011;60444;43.534;-5.674;2022-12-18T00:07:03;25.77;;;15.83;;
72437;SDS011;60444;43.534;-5.674;2022-12-18T00:09:28;27.80;;;16.60;;
72437;SDS011;60444;43.534;-5.674;2022-12-18T00:11:54;23.90;;;15.07;;
72437;SDS011;60444;43.534;-5.674;2022-12-18T00:14:20;20.77;;;11.57;;
72437;SDS011;60444;43.534;-5.674;2022-12-18T00:16:45;22.05;;;11.43;;
72437;SDS011;60444;43.534;-5.674;2022-12-18T00:19:12;28.27;;;16.30;;
72437;SDS011;60444;43.534;-5.674;2022-12-18T00:21:38;26.47;;;14.33;;
72437;SDS011;60444;43.534;-5.674;2022-12-18T00:24:07;20.55;;;11.27;;
72437;SDS011;60444;43.534;-5.674;2022-12-18T00:26:33;18.13;;;9.77;;
72437;SDS011;60444;43.534;-5.674;2022-12-18T00:29:02;28.58;;;12.73;;
72437;SDS011;60444;43.534;-5.674;2022-12-18T00:31:29;20.83;;;11.00;;
72437;SDS011;60444;43.534;-5.674;2022-12-18T00:33:55;17.57;;;8.67;;
72437;SDS011;60444;43.534;-5.674;2022-12-18T00:36:22;13.73;;;7.35;;
72437;SDS011;60444;43.534;-5.674;2022-12-18T00:38:50;14.60;;;7.47;;
72437;SDS011;60444;43.534;-5.674;2022-12-18T00:41:17;17.33;;;8.50;;
72437;SDS011;60444;43.534;-5.674;2022-12-18T00:44:02;10.70;;;6.47;;
72437;SDS011;60444;43.534;-5.674;2022-12-18T00:46:28;15.98;;;8.05;;
72437;SDS011;60444;43.534;-5.674;2022-12-18T00:48:54;12.90;;;6.70;;
72437;SDS011;60444;43.534;-5.674;2022-12-18T00:51:20;13.88;;;6.10;;
72437;SDS011;60444;43.534;-5.674;2022-12-18T00:53:45;13.87;;;7.03;;
72437;SDS011;60444;43.534;-5.674;2022-12-18T00:56:11;16.87;;;7.47;;
72437;SDS011;60444;43.534;-5.674;2022-12-18T00:58:36;15.70;;;8.15;;
72437;SDS011;60444;43.534;-5.674;2022-12-18T01:01:03;16.80;;;7.30;;
72437;SDS011;60444;43.534;-5.674;2022-12-18T01:03:29;17.08;;;8.73;;
72437;SDS011;60444;43.534;-5.674;2022-12-18T01:05:55;16.95;;;9.38;;
72437;SDS011;60444;43.534;-5.674;2022-12-18T01:08:21;15.90;;;7.30;;
72437;SDS011;60444;43.534;-5.674;2022-12-18T01:10:47;15.30;;;7.63;;
72437;SDS011;60444;43.534;-5.674;2022-12-18T01:13:13;16.33;;;7.40;;
72437;SDS011;60444;43.534;-5.674;2022-12-18T01:15:38;16.40;;;7.70;;
72437;SDS011;60444;43.534;-5.674;2022-12-18T01:18:05;14.73;;;6.73;;
72437;SDS011;60444;43.534;-5.674;2022-12-18T01:20:32;13.73;;;6.22;;
72437;SDS011;60444;43.534;-5.674;2022-12-18T01:22:58;14.18;;;6.13;;
72437;SDS011;60444;43.534;-5.674;2022-12-18T01:25:23;11.60;;;6.00;;
72437;SDS011;60444;43.534;-5.674;2022-12-18T01:27:50;12.45;;;5.82;;
72437;SDS011;60444;43.534;-5.674;2022-12-18T01:30:15;10.67;;;5.37;;
72437;SDS011;60444;43.534;-5.674;2022-12-18T01:32:41;13.67;;;6.90;;
72437;SDS011;60444;43.534;-5.674;2022-12-18T01:35:06;13.73;;;6.70;;
72437;SDS011;60444;43.534;-5.674;2022-12-18T01:37:32;15.90;;;7.80;;
72437;SDS011;60444;43.534;-5.674;2022-12-18T01:39:58;16.48;;;7.20;;
72437;SDS011;60444;43.534;-5.674;2022-12-18T01:42:23;12.37;;;5.73;;
72437;SDS011;60444;43.534;-5.674;2022-12-18T01:44:53;11.30;;;6.10;;
72437;SDS011;60444;43.534;-5.674;2022-12-18T01:47:47;11.10;;;5.70;;
72437;SDS011;60444;43.534;-5.674;2022-12-18T01:50:22;12.07;;;5.67;;
72437;SDS011;60444;43.534;-5.674;2022-12-18T01:52:54;11.95;;;6.85;;
72437;SDS011;60444;43.534;-5.674;2022-12-18T01:55:26;11.95;;;5.95;;
72437;SDS011;60444;43.534;-5.674;2022-12-18T01:57:56;15.35;;;6.68;;
72437;SDS011;60444;43.534;-5.674;2022-12-18T02:00:24;11.52;;;5.72;;
72437;SDS011;60444;43.534;-5.674;2022-12-18T02:02:51;13.43;;;5.97;;
72437;SDS011;60444;43.534;-5.674;2022-12-18T02:13:21;11.02;;;6.07;;
72437;SDS011;60444;43.534;-5.674;2022-12-18T02:16:12;10.67;;;5.80;;
72437;SDS011;60444;43.534;-5.674;2022-12-18T02:18:51;11.95;;;4.78;;
72437;SDS011;60444;43.534;-5.674;2022-12-18T02:26:42;11.30;;;4.70;;
72437;SDS011;60444;43.534;-5.674;2022-12-18T02:29:15;11.03;;;5.60;;
72437;SDS011;60444;43.534;-5.674;2022-12-18T02:31:55;13.07;;;6.07;;
72437;SDS011;60444;43.534;-5.674;2022-12-18T02:34:29;12.90;;;6.65;;
72437;SDS011;60444;43.534;-5.674;2022-12-18T02:36:58;11.68;;;5.28;;
72437;SDS011;60444;43.534;-5.674;2022-12-18T02:39:27;11.52;;;5.57;;
72437;SDS011;60444;43.534;-5.674;2022-12-18T02:41:56;9.57;;;4.50;;
72437;SDS011;60444;43.534;-5.674;2022-12-18T02:44:23;11.93;;;4.47;;
72437;SDS011;60444;43.534;-5.674;2022-12-18T02:46:51;9.80;;;4.20;;
72437;SDS011;60444;43.534;-5.674;2022-12-18T03:00:15;10.60;;;4.57;;
72437;SDS011;60444;43.534;-5.674;2022-12-18T03:02:59;9.35;;;4.03;;
72437;SDS011;60444;43.534;-5.674;2022-12-18T03:08:24;12.20;;;4.97;;
72437;SDS011;60444;43.534;-5.674;2022-12-18T03:11:04;13.13;;;6.55;;
72437;SDS011;60444;43.534;-5.674;2022-12-18T03:13:33;11.70;;;6.07;;
72437;SDS011;60444;43.534;-5.674;2022-12-18T03:16:02;12.43;;;5.90;;
72437;SDS011;60444;43.534;-5.674;2022-12-18T03:18:35;12.30;;;6.00;;
72437;SDS011;60444;43.534;-5.674;2022-12-18T03:21:05;12.30;;;5.45;;
72437;SDS011;60444;43.534;-5.674;2022-12-18T03:23:42;11.85;;;5.63;;
72437;SDS011;60444;43.534;-5.674;2022-12-18T03:26:12;10.50;;;5.03;;
72437;SDS011;60444;43.534;-5.674;2022-12-18T03:28:44;11.98;;;5.35;;
72437;SDS011;60444;43.534;-5.674;2022-12-18T03:31:14;12.88;;;5.90;;
72437;SDS011;60444;43.534;-5.674;2022-12-18T03:33:47;10.23;;;6.13;;
72437;SDS011;60444;43.534;-5.674;2022-12-18T03:36:17;10.50;;;5.28;;
72437;SDS011;60444;43.534;-5.674;2022-12-18T03:38:43;11.07;;;5.73;;
72437;SDS011;60444;43.534;-5.674;2022-12-18T03:41:19;12.55;;;6.20;;
72437;SDS011;60444;43.534;-5.674;2022-12-18T03:44:00;11.13;;;5.38;;
72437;SDS011;60444;43.534;-5.674;2022-12-18T03:46:59;13.80;;;7.87;;
72437;SDS011;60444;43.534;-5.674;2022-12-18T03:49:38;10.00;;;5.70;;
72437;SDS011;60444;43.534;-5.674;2022-12-18T03:52:13;11.38;;;6.95;;
72437;SDS011;60444;43.534;-5.674;2022-12-18T03:55:01;11.00;;;5.18;;
72437;SDS011;60444;43.534;-5.674;2022-12-18T03:57:29;12.18;;;7.00;;
72437;SDS011;60444;43.534;-5.674;2022-12-18T04:00:00;15.90;;;8.47;;
72437;SDS011;60444;43.534;-5.674;2022-12-18T04:02:31;13.95;;;7.88;;
72437;SDS011;60444;43.534;-5.674;2022-12-18T04:04:59;13.50;;;7.97;;
72437;SDS011;60444;43.534;-5.674;2022-12-18T04:07:27;14.45;;;7.60;;
72437;SDS011;60444;43.534;-5.674;2022-12-18T04:09:54;12.13;;;5.80;;
72437;SDS011;60444;43.534;-5.674;2022-12-18T04:12:24;9.02;;;4.97;;
72437;SDS011;60444;43.534;-5.674;2022-12-18T04:14:51;9.30;;;4.55;;
72437;SDS011;60444;43.534;-5.674;2022-12-18T04:17:17;10.45;;;5.90;;
72437;SDS011;60444;43.534;-5.674;2022-12-18T04:19:42;11.53;;;6.30;;
72437;SDS011;60444;43.534;-5.674;2022-12-18T04:22:09;13.57;;;7.32;;
72437;SDS011;60444;43.534;-5.674;2022-12-18T04:24:35;12.67;;;8.07;;
72437;SDS011;60444;43.534;-5.674;2022-12-18T04:27:01;11.88;;;6.05;;
72437;SDS011;60444;43.534;-5.674;2022-12-18T04:29:27;13.73;;;6.07;;
72437;SDS011;60444;43.534;-5.674;2022-12-18T04:31:53;11.00;;;6.03;;
72437;SDS011;60444;43.534;-5.674;2022-12-18T04:34:19;13.10;;;5.75;;
72437;SDS011;60444;43.534;-5.674;2022-12-18T04:36:45;13.40;;;8.13;;
72437;SDS011;60444;43.534;-5.674;2022-12-18T04:39:11;12.77;;;6.27;;
72437;SDS011;60444;43.534;-5.674;2022-12-18T04:41:36;13.80;;;6.95;;
72437;SDS011;60444;43.534;-5.674;2022-12-18T04:44:02;12.03;;;6.43;;
72437;SDS011;60444;43.534;-5.674;2022-12-18T04:46:28;10.45;;;5.40;;
72437;SDS011;60444;43.534;-5.674;2022-12-18T04:48:53;13.17;;;5.93;;
72437;SDS011;60444;43.534;-5.674;2022-12-18T04:51:19;10.67;;;4.50;;
72437;SDS011;60444;43.534;-5.674;2022-12-18T04:53:44;10.43;;;4.50;;
72437;SDS011;60444;43.534;-5.674;2022-12-18T04:56:11;9.73;;;4.10;;
72437;SDS011;60444;43.534;-5.674;2022-12-18T04:58:38;10.88;;;4.93;;
72437;SDS011;60444;43.534;-5.674;2022-12-18T05:01:04;8.20;;;3.72;;
72437;SDS011;60444;43.534;-5.674;2022-12-18T05:03:30;8.87;;;4.23;;
72437;SDS011;60444;43.534;-5.674;2022-12-18T05:05:56;8.70;;;3.90;;
72437;SDS011;60444;43.534;-5.674;2022-12-18T05:08:21;7.83;;;3.47;;
72437;SDS011;60444;43.534;-5.674;2022-12-18T05:10:47;8.18;;;4.13;;
72437;SDS011;60444;43.534;-5.674;2022-12-18T05:13:12;7.13;;;2.93;;
72437;SDS011;60444;43.534;-5.674;2022-12-18T05:15:38;9.57;;;4.10;;
72437;SDS011;60444;43.534;-5.674;2022-12-18T05:18:04;9.27;;;4.30;;
72437;SDS011;60444;43.534;-5.674;2022-12-18T05:20:29;11.83;;;5.33;;
72437;SDS011;60444;43.534;-5.674;2022-12-18T05:22:55;11.33;;;5.53;;
72437;SDS011;60444;43.534;-5.674;2022-12-18T05:25:21;10.87;;;5.53;;
72437;SDS011;60444;43.534;-5.674;2022-12-18T05:27:47;8.77;;;4.53;;
72437;SDS011;60444;43.534;-5.674;2022-12-18T05:30:12;11.50;;;4.93;;
72437;SDS011;60444;43.534;-5.674;2022-12-18T05:32:39;9.90;;;4.63;;
72437;SDS011;60444;43.534;-5.674;2022-12-18T05:35:05;8.80;;;4.53;;
72437;SDS011;60444;43.534;-5.674;2022-12-18T05:37:32;8.63;;;3.80;;
72437;SDS011;60444;43.534;-5.674;2022-12-18T05:39:58;8.23;;;3.72;;
72437;SDS011;60444;43.534;-5.674;2022-12-18T05:42:23;7.70;;;3.50;;
72437;SDS011;60444;43.534;-5.674;2022-12-18T05:44:49;7.57;;;3.27;;
72437;SDS011;60444;43.534;-5.674;2022-12-18T05:47:14;7.80;;;2.70;;
72437;SDS011;60444;43.534;-5.674;2022-12-18T05:49:40;7.70;;;3.08;;
72437;SDS011;60444;43.534;-5.674;2022-12-18T05:52:05;7.77;;;3.37;;
72437;SDS011;60444;43.534;-5.674;2022-12-18T05:54:31;7.33;;;2.70;;
72437;SDS011;60444;43.534;-5.674;2022-12-18T05:56:57;8.88;;;3.00;;
72437;SDS011;60444;43.534;-5.674;2022-12-18T05:59:22;6.35;;;2.80;;
72437;SDS011;60444;43.534;-5.674;2022-12-18T06:01:48;7.23;;;2.50;;
72437;SDS011;60444;43.534;-5.674;2022-12-18T06:04:14;9.43;;;2.83;;
72437;SDS011;60444;43.534;-5.674;2022-12-18T06:06:41;7.32;;;2.92;;
72437;SDS011;60444;43.534;-5.674;2022-12-18T06:09:06;8.10;;;2.87;;
72437;SDS011;60444;43.534;-5.674;2022-12-18T06:11:34;7.60;;;2.67;;
72437;SDS011;60444;43.534;-5.674;2022-12-18T06:14:02;8.20;;;2.70;;
72437;SDS011;60444;43.534;-5.674;2022-12-18T06:16:29;6.70;;;2.75;;
72437;SDS011;60444;43.534;-5.674;2022-12-18T06:18:56;7.03;;;2.67;;
72437;SDS011;60444;43.534;-5.674;2022-12-18T06:21:22;6.57;;;2.57;;
72437;SDS011;60444;43.534;-5.674;2022-12-18T06:23:48;7.97;;;2.90;;
72437;SDS011;60444;43.534;-5.674;2022-12-18T06:26:13;7.87;;;2.90;;
72437;SDS011;60444;43.534;-5.674;2022-12-18T06:28:39;9.98;;;2.92;;
72437;SDS011;60444;43.534;-5.674;2022-12-18T06:31:05;6.80;;;2.60;;
72437;SDS011;60444;43.534;-5.674;2022-12-18T06:33:32;7.00;;;2.60;;
72437;SDS011;60444;43.534;-5.674;2022-12-18T06:36:01;6.72;;;2.60;;
72437;SDS011;60444;43.534;-5.674;2022-12-18T06:38:29;7.05;;;2.40;;
72437;SDS011;60444;43.534;-5.674;2022-12-18T06:40:54;7.72;;;2.45;;
72437;SDS011;60444;43.534;-5.674;2022-12-18T06:43:20;7.70;;;3.53;;
72437;SDS011;60444;43.534;-5.674;2022-12-18T06:45:45;6.40;;;2.50;;
72437;SDS011;60444;43.534;-5.674;2022-12-18T06:48:17;5.90;;;2.60;;
72437;SDS011;60444;43.534;-5.674;2022-12-18T06:50:45;9.52;;;3.60;;
72437;SDS011;60444;43.534;-5.674;2022-12-18T06:53:11;6.53;;;2.43;;
72437;SDS011;60444;43.534;-5.674;2022-12-18T06:55:36;7.73;;;2.50;;
72437;SDS011;60444;43.534;-5.674;2022-12-18T06:58:02;6.40;;;1.85;;
72437;SDS011;60444;43.534;-5.674;2022-12-18T07:00:27;5.67;;;2.60;;
72437;SDS011;60444;43.534;-5.674;2022-12-18T07:02:53;9.47;;;2.50;;
72437;SDS011;60444;43.534;-5.674;2022-12-18T07:05:19;6.45;;;2.13;;
72437;SDS011;60444;43.534;-5.674;2022-12-18T07:07:44;6.57;;;2.30;;
72437;SDS011;60444;43.534;-5.674;2022-12-18T07:10:09;6.80;;;2.33;;
72437;SDS011;60444;43.534;-5.674;2022-12-18T07:12:35;6.53;;;2.78;;
72437;SDS011;60444;43.534;-5.674;2022-12-18T07:15:01;6.00;;;2.70;;
72437;SDS011;60444;43.534;-5.674;2022-12-18T07:17:27;8.20;;;3.75;;
72437;SDS011;60444;43.534;-5.674;2022-12-18T07:19:52;10.80;;;3.90;;
72437;SDS011;60444;43.534;-5.674;2022-12-18T07:22:18;6.32;;;2.80;;
72437;SDS011;60444;43.534;-5.674;2022-12-18T07:24:43;9.13;;;3.30;;
72437;SDS011;60444;43.534;-5.674;2022-12-18T07:27:09;7.50;;;3.30;;
72437;SDS011;60444;43.534;-5.674;2022-12-18T07:29:34;9.40;;;3.22;;
72437;SDS011;60444;43.534;-5.674;2022-12-18T07:32:00;7.00;;;2.73;;
72437;SDS011;60444;43.534;-5.674;2022-12-18T07:34:25;9.33;;;3.73;;
72437;SDS011;60444;43.534;-5.674;2022-12-18T07:36:51;8.93;;;3.50;;
72437;SDS011;60444;43.534;-5.674;2022-12-18T07:39:16;8.27;;;3.20;;
72437;SDS011;60444;43.534;-5.674;2022-12-18T07:41:42;7.03;;;3.30;;
72437;SDS011;60444;43.534;-5.674;2022-12-18T07:44:11;10.15;;;3.22;;
72437;SDS011;60444;43.534;-5.674;2022-12-18T07:46:37;10.18;;;3.28;;
72437;SDS011;60444;43.534;-5.674;2022-12-18T07:49:03;8.55;;;3.58;;
72437;SDS011;60444;43.534;-5.674;2022-12-18T07:51:28;7.57;;;3.30;;
72437;SDS011;60444;43.534;-5.674;2022-12-18T07:53:54;7.07;;;3.20;;
72437;SDS011;60444;43.534;-5.674;2022-12-18T07:56:20;9.77;;;3.93;;
72437;SDS011;60444;43.534;-5.674;2022-12-18T07:58:46;8.07;;;3.40;;
72437;SDS011;60444;43.534;-5.674;2022-12-18T08:01:12;8.63;;;3.05;;
72437;SDS011;60444;43.534;-5.674;2022-12-18T08:03:38;8.57;;;3.60;;
72437;SDS011;60444;43.534;-5.674;2022-12-18T08:06:06;8.05;;;3.10;;
72437;SDS011;60444;43.534;-5.674;2022-12-18T08:08:33;7.85;;;2.85;;
72437;SDS011;60444;43.534;-5.674;2022-12-18T08:10:59;7.90;;;3.22;;
72437;SDS011;60444;43.534;-5.674;2022-12-18T08:13:25;7.70;;;3.27;;
72437;SDS011;60444;43.534;-5.674;2022-12-18T08:16:04;9.77;;;2.97;;
72437;SDS011;60444;43.534;-5.674;2022-12-18T08:18:35;7.72;;;2.97;;
72437;SDS011;60444;43.534;-5.674;2022-12-18T08:21:35;9.27;;;3.53;;
72437;SDS011;60444;43.534;-5.674;2022-12-18T08:23:55;7.70;;;2.83;;
72437;SDS011;60444;43.534;-5.674;2022-12-18T08:26:23;6.40;;;2.55;;
72437;SDS011;60444;43.534;-5.674;2022-12-18T08:28:50;8.23;;;3.83;;
72437;SDS011;60444;43.534;-5.674;2022-12-18T08:31:16;7.35;;;2.50;;
72437;SDS011;60444;43.534;-5.674;2022-12-18T08:33:42;9.73;;;2.53;;
72437;SDS011;60444;43.534;-5.674;2022-12-18T08:36:08;7.57;;;2.50;;
72437;SDS011;60444;43.534;-5.674;2022-12-18T08:38:34;6.60;;;2.10;;
72437;SDS011;60444;43.534;-5.674;2022-12-18T08:43:27;8.50;;;3.00;;
72437;SDS011;60444;43.534;-5.674;2022-12-18T08:46:11;7.40;;;2.50;;
72437;SDS011;60444;43.534;-5.674;2022-12-18T08:48:40;7.15;;;3.20;;
72437;SDS011;60444;43.534;-5.674;2022-12-18T08:51:06;6.93;;;2.47;;
72437;SDS011;60444;43.534;-5.674;2022-12-18T08:53:31;7.75;;;2.72;;
72437;SDS011;60444;43.534;-5.674;2022-12-18T08:55:57;8.37;;;2.50;;
72437;SDS011;60444;43.534;-5.674;2022-12-18T08:58:23;6.60;;;2.33;;
72437;SDS011;60444;43.534;-5.674;2022-12-18T09:00:48;6.70;;;2.53;;
72437;SDS011;60444;43.534;-5.674;2022-12-18T09:03:14;8.33;;;2.73;;
72437;SDS011;60444;43.534;-5.674;2022-12-18T09:05:42;7.97;;;3.17;;
72437;SDS011;60444;43.534;-5.674;2022-12-18T09:08:08;7.57;;;2.90;;
72437;SDS011;60444;43.534;-5.674;2022-12-18T09:10:34;7.07;;;2.80;;
72437;SDS011;60444;43.534;-5.674;2022-12-18T09:13:07;7.47;;;3.07;;
72437;SDS011;60444;43.534;-5.674;2022-12-18T09:15:32;9.98;;;4.15;;
72437;SDS011;60444;43.534;-5.674;2022-12-18T09:17:57;7.03;;;3.10;;
72437;SDS011;60444;43.534;-5.674;2022-12-18T09:20:23;8.10;;;3.40;;
72437;SDS011;60444;43.534;-5.674;2022-12-18T09:22:49;9.00;;;4.10;;
72437;SDS011;60444;43.534;-5.674;2022-12-18T09:25:15;10.60;;;4.07;;
72437;SDS011;60444;43.534;-5.674;2022-12-18T09:27:40;10.73;;;3.97;;
72437;SDS011;60444;43.534;-5.674;2022-12-18T09:30:06;15.27;;;7.00;;
72437;SDS011;60444;43.534;-5.674;2022-12-18T09:32:32;10.68;;;5.25;;
72437;SDS011;60444;43.534;-5.674;2022-12-18T09:34:57;14.60;;;6.80;;
72437;SDS011;60444;43.534;-5.674;2022-12-18T09:37:23;12.50;;;6.07;;
72437;SDS011;60444;43.534;-5.674;2022-12-18T09:39:49;14.37;;;7.10;;
72437;SDS011;60444;43.534;-5.674;2022-12-18T09:42:21;14.00;;;7.13;;
72437;SDS011;60444;43.534;-5.674;2022-12-18T09:44:52;16.33;;;9.15;;
72437;SDS011;60444;43.534;-5.674;2022-12-18T09:47:23;12.98;;;6.53;;
72437;SDS011;60444;43.534;-5.674;2022-12-18T09:49:55;13.53;;;6.43;;
72437;SDS011;60444;43.534;-5.674;2022-12-18T09:52:23;14.50;;;6.60;;
72437;SDS011;60444;43.534;-5.674;2022-12-18T09:55:05;13.85;;;7.30;;
72437;SDS011;60444;43.534;-5.674;2022-12-18T09:57:37;9.27;;;4.80;;
72437;SDS011;60444;43.534;-5.674;2022-12-18T10:02:39;12.67;;;6.37;;
72437;SDS011;60444;43.534;-5.674;2022-12-18T10:10:21;10.40;;;5.77;;
72437;SDS011;60444;43.534;-5.674;2022-12-18T10:13:21;10.45;;;4.68;;
72437;SDS011;60444;43.534;-5.674;2022-12-18T10:15:54;10.77;;;5.20;;
72437;SDS011;60444;43.534;-5.674;2022-12-18T10:21:26;8.27;;;3.63;;
72437;SDS011;60444;43.534;-5.674;2022-12-18T10:26:48;8.77;;;3.13;;
72437;SDS011;60444;43.534;-5.674;2022-12-18T10:29:14;7.28;;;3.22;;
72437;SDS011;60444;43.534;-5.674;2022-12-18T10:31:41;8.83;;;3.00;;
72437;SDS011;60444;43.534;-5.674;2022-12-18T10:34:13;7.72;;;3.30;;
72437;SDS011;60444;43.534;-5.674;2022-12-18T10:36:39;8.38;;;3.25;;
72437;SDS011;60444;43.534;-5.674;2022-12-18T10:41:42;8.13;;;2.90;;
72437;SDS011;60444;43.534;-5.674;2022-12-18T10:44:20;10.47;;;3.20;;
72437;SDS011;60444;43.534;-5.674;2022-12-18T10:46:51;7.78;;;3.13;;
72437;SDS011;60444;43.534;-5.674;2022-12-18T10:49:23;7.40;;;2.95;;
72437;SDS011;60444;43.534;-5.674;2022-12-18T10:51:52;6.33;;;2.53;;
72437;SDS011;60444;43.534;-5.674;2022-12-18T10:54:31;7.18;;;3.33;;
72437;SDS011;60444;43.534;-5.674;2022-12-18T10:57:15;10.77;;;4.22;;
72437;SDS011;60444;43.534;-5.674;2022-12-18T10:59:52;10.32;;;4.03;;
72437;SDS011;60444;43.534;-5.674;2022-12-18T11:02:35;11.48;;;3.83;;
72437;SDS011;60444;43.534;-5.674;2022-12-18T11:05:04;8.83;;;3.30;;
72437;SDS011;60444;43.534;-5.674;2022-12-18T11:07:50;10.75;;;3.60;;
72437;SDS011;60444;43.534;-5.674;2022-12-18T11:10:16;8.52;;;3.17;;
72437;SDS011;60444;43.534;-5.674;2022-12-18T11:12:47;8.00;;;2.60;;
72437;SDS011;60444;43.534;-5.674;2022-12-18T11:15:15;7.55;;;3.13;;
72437;SDS011;60444;43.534;-5.674;2022-12-18T11:17:53;6.27;;;2.17;;
72437;SDS011;60444;43.534;-5.674;2022-12-18T11:20:20;8.35;;;3.42;;
72437;SDS011;60444;43.534;-5.674;2022-12-18T11:23:05;14.95;;;4.85;;
72437;SDS011;60444;43.534;-5.674;2022-12-18T11:25:38;8.95;;;3.05;;
72437;SDS011;60444;43.534;-5.674;2022-12-18T11:28:51;11.85;;;4.85;;
72437;SDS011;60444;43.534;-5.674;2022-12-18T11:31:09;11.53;;;5.03;;
72437;SDS011;60444;43.534;-5.674;2022-12-18T11:33:56;8.30;;;3.53;;
72437;SDS011;60444;43.534;-5.674;2022-12-18T11:36:26;9.45;;;3.67;;
72437;SDS011;60444;43.534;-5.674;2022-12-18T11:38:57;10.23;;;4.35;;
72437;SDS011;60444;43.534;-5.674;2022-12-18T11:44:53;10.23;;;4.23;;
72437;SDS011;60444;43.534;-5.674;2022-12-18T11:50:14;10.07;;;4.15;;
72437;SDS011;60444;43.534;-5.674;2022-12-18T11:52:43;7.13;;;2.72;;
72437;SDS011;60444;43.534;-5.674;2022-12-18T11:55:14;11.43;;;4.95;;
72437;SDS011;60444;43.534;-5.674;2022-12-18T11:57:55;14.03;;;6.07;;
72437;SDS011;60444;43.534;-5.674;2022-12-18T12:00:32;11.05;;;5.55;;
72437;SDS011;60444;43.534;-5.674;2022-12-18T12:08:52;10.45;;;5.45;;
72437;SDS011;60444;43.534;-5.674;2022-12-18T12:11:29;12.63;;;5.70;;
72437;SDS011;60444;43.534;-5.674;2022-12-18T12:17:03;11.82;;;4.70;;
72437;SDS011;60444;43.534;-5.674;2022-12-18T12:22:31;9.40;;;4.72;;
72437;SDS011;60444;43.534;-5.674;2022-12-18T12:25:19;15.50;;;6.23;;
72437;SDS011;60444;43.534;-5.674;2022-12-18T12:31:07;10.00;;;4.80;;
72437;SDS011;60444;43.534;-5.674;2022-12-18T12:36:37;10.13;;;4.50;;
72437;SDS011;60444;43.534;-5.674;2022-12-18T12:39:15;10.57;;;4.33;;
72437;SDS011;60444;43.534;-5.674;2022-12-18T12:41:46;12.57;;;5.63;;
72437;SDS011;60444;43.534;-5.674;2022-12-18T12:44:32;10.93;;;4.45;;
72437;SDS011;60444;43.534;-5.674;2022-12-18T12:47:07;10.35;;;3.90;;
72437;SDS011;60444;43.534;-5.674;2022-12-18T12:49:44;10.77;;;4.50;;
72437;SDS011;60444;43.534;-5.674;2022-12-18T12:52:16;7.90;;;3.80;;
72437;SDS011;60444;43.534;-5.674;2022-12-18T12:54:51;9.02;;;3.65;;
72437;SDS011;60444;43.534;-5.674;2022-12-18T13:02:42;10.70;;;4.10;;
72437;SDS011;60444;43.534;-5.674;2022-12-18T13:05:39;12.63;;;4.97;;
72437;SDS011;60444;43.534;-5.674;2022-12-18T13:08:27;11.65;;;5.47;;
72437;SDS011;60444;43.534;-5.674;2022-12-18T13:10:55;10.52;;;4.53;;
72437;SDS011;60444;43.534;-5.674;2022-12-18T13:13:51;9.43;;;4.63;;
72437;SDS011;60444;43.534;-5.674;2022-12-18T13:16:20;10.90;;;4.57;;
72437;SDS011;60444;43.534;-5.674;2022-12-18T13:18:54;8.60;;;4.03;;
72437;SDS011;60444;43.534;-5.674;2022-12-18T13:21:30;8.95;;;3.20;;
72437;SDS011;60444;43.534;-5.674;2022-12-18T13:24:15;9.18;;;4.07;;
72437;SDS011;60444;43.534;-5.674;2022-12-18T13:26:49;9.00;;;3.38;;
72437;SDS011;60444;43.534;-5.674;2022-12-18T13:29:39;8.70;;;4.00;;
72437;SDS011;60444;43.534;-5.674;2022-12-18T13:32:20;5.93;;;1.92;;
72437;SDS011;60444;43.534;-5.674;2022-12-18T13:37:53;8.37;;;3.73;;
72437;SDS011;60444;43.534;-5.674;2022-12-18T13:43:15;8.13;;;2.95;;
72437;SDS011;60444;43.534;-5.674;2022-12-18T13:48:24;8.43;;;3.38;;
72437;SDS011;60444;43.534;-5.674;2022-12-18T13:50:59;9.97;;;3.33;;
72437;SDS011;60444;43.534;-5.674;2022-12-18T13:53:33;8.05;;;3.70;;
72437;SDS011;60444;43.534;-5.674;2022-12-18T13:56:03;5.95;;;2.17;;
72437;SDS011;60444;43.534;-5.674;2022-12-18T13:58:29;7.05;;;2.90;;
72437;SDS011;60444;43.534;-5.674;2022-12-18T14:00:55;8.47;;;3.60;;
72437;SDS011;60444;43.534;-5.674;2022-12-18T14:03:25;8.88;;;3.85;;
72437;SDS011;60444;43.534;-5.674;2022-12-18T14:05:53;7.43;;;2.92;;
72437;SDS011;60444;43.534;-5.674;2022-12-18T14:08:33;8.93;;;3.45;;
72437;SDS011;60444;43.534;-5.674;2022-12-18T14:11:03;6.97;;;2.30;;
72437;SDS011;60444;43.534;-5.674;2022-12-18T14:13:36;7.85;;;3.40;;
72437;SDS011;60444;43.534;-5.674;2022-12-18T14:16:06;9.85;;;3.65;;
72437;SDS011;60444;43.534;-5.674;2022-12-18T14:21:34;8.40;;;3.50;;
72437;SDS011;60444;43.534;-5.674;2022-12-18T14:24:04;7.37;;;1.77;;
72437;SDS011;60444;43.534;-5.674;2022-12-18T14:26:30;7.68;;;2.28;;
72437;SDS011;60444;43.534;-5.674;2022-12-18T14:28:58;7.53;;;2.72;;
72437;SDS011;60444;43.534;-5.674;2022-12-18T14:31:27;7.13;;;2.70;;
72437;SDS011;60444;43.534;-5.674;2022-12-18T14:33:54;8.07;;;3.17;;
72437;SDS011;60444;43.534;-5.674;2022-12-18T14:36:24;7.63;;;3.07;;
72437;SDS011;60444;43.534;-5.674;2022-12-18T14:38:54;6.10;;;1.98;;
72437;SDS011;60444;43.534;-5.674;2022-12-18T14:41:21;5.97;;;1.85;;
72437;SDS011;60444;43.534;-5.674;2022-12-18T14:43:48;7.33;;;2.90;;
72437;SDS011;60444;43.534;-5.674;2022-12-18T14:46:28;5.85;;;2.20;;
72437;SDS011;60444;43.534;-5.674;2022-12-18T14:49:04;8.35;;;3.22;;
72437;SDS011;60444;43.534;-5.674;2022-12-18T14:51:42;9.48;;;3.92;;
72437;SDS011;60444;43.534;-5.674;2022-12-18T14:54:20;6.88;;;2.35;;
72437;SDS011;60444;43.534;-5.674;2022-12-18T14:56:48;6.00;;;1.90;;
72437;SDS011;60444;43.534;-5.674;2022-12-18T14:59:23;8.20;;;3.28;;
72437;SDS011;60444;43.534;-5.674;2022-12-18T15:09:35;7.50;;;2.50;;
72437;SDS011;60444;43.534;-5.674;2022-12-18T15:12:01;7.82;;;3.08;;
72437;SDS011;60444;43.534;-5.674;2022-12-18T15:16:56;6.70;;;2.60;;
72437;SDS011;60444;43.534;-5.674;2022-12-18T15:19:23;6.40;;;2.27;;
72437;SDS011;60444;43.534;-5.674;2022-12-18T15:21:58;6.15;;;1.60;;
72437;SDS011;60444;43.534;-5.674;2022-12-18T15:24:26;5.85;;;2.10;;
72437;SDS011;60444;43.534;-5.674;2022-12-18T15:26:55;7.13;;;2.17;;
72437;SDS011;60444;43.534;-5.674;2022-12-18T15:29:23;5.45;;;1.70;;
72437;SDS011;60444;43.534;-5.674;2022-12-18T15:31:58;4.40;;;1.50;;
72437;SDS011;60444;43.534;-5.674;2022-12-18T15:34:28;6.45;;;1.90;;
72437;SDS011;60444;43.534;-5.674;2022-12-18T15:36:53;6.00;;;2.10;;
72437;SDS011;60444;43.534;-5.674;2022-12-18T15:39:19;6.43;;;1.67;;
72437;SDS011;60444;43.534;-5.674;2022-12-18T15:41:45;4.97;;;1.23;;
72437;SDS011;60444;43.534;-5.674;2022-12-18T15:44:30;6.18;;;1.65;;
72437;SDS011;60444;43.534;-5.674;2022-12-18T15:46:56;4.97;;;1.65;;
72437;SDS011;60444;43.534;-5.674;2022-12-18T15:49:22;5.82;;;1.80;;
72437;SDS011;60444;43.534;-5.674;2022-12-18T15:51:53;5.37;;;1.53;;
72437;SDS011;60444;43.534;-5.674;2022-12-18T15:54:22;5.78;;;1.70;;
72437;SDS011;60444;43.534;-5.674;2022-12-18T15:57:10;5.20;;;1.63;;
72437;SDS011;60444;43.534;-5.674;2022-12-18T15:59:53;6.07;;;1.80;;
72437;SDS011;60444;43.534;-5.674;2022-12-18T16:02:21;4.90;;;1.58;;
72437;SDS011;60444;43.534;-5.674;2022-12-18T16:04:47;4.93;;;1.30;;
72437;SDS011;60444;43.534;-5.674;2022-12-18T16:07:13;4.90;;;1.55;;
72437;SDS011;60444;43.534;-5.674;2022-12-18T16:09:39;5.73;;;1.53;;
72437;SDS011;60444;43.534;-5.674;2022-12-18T16:12:06;7.32;;;2.28;;
72437;SDS011;60444;43.534;-5.674;2022-12-18T16:14:35;5.63;;;1.65;;
72437;SDS011;60444;43.534;-5.674;2022-12-18T16:17:01;6.37;;;2.07;;
72437;SDS011;60444;43.534;-5.674;2022-12-18T16:19:28;4.05;;;1.10;;
72437;SDS011;60444;43.534;-5.674;2022-12-18T16:21:55;5.60;;;1.73;;